METAR AND TAF INFORMATION
METAR FOR KMMH
ADDS - METARS form results

(0315 UTC 26 February 2021)
Data provider http://aviationweather.gov/metar/data/
 
METAR text: KMMH 260255Z AUTO 01004KT 10SM CLR 01/M10 A3024 RMK AO2
Conditions at: KMMH (MAMMOTH/JUNE LAK, CA, US) observed 0255 UTC 26 February 2021
Temperature: 1.0°C (34°F)
Dewpoint: -10.0°C (14°F) [RH = 44%]
Pressure (altimeter): 30.24 inches Hg (1024.1 mb)
Winds: from the N (10 degrees) at 5 MPH (4 knots; 2.1 m/s)
Visibility: 10 or more miles (16+ km)
Ceiling: at least 12,000 feet AGL
Clouds: sky clear below 12,000 feet AGL
Weather: automated observation with no human augmentation;
there may or may not be significant weather present at this time

METAR text: KMMH 260236Z AUTO 29007KT 10SM CLR 01/M11 A3024 RMK AO2
Conditions at: KMMH (MAMMOTH/JUNE LAK, CA, US) observed 0236 UTC 26 February 2021
Temperature: 1.0°C (34°F)
Dewpoint: -11.0°C (12°F) [RH = 40%]
Pressure (altimeter): 30.24 inches Hg (1024.1 mb)
Winds: from the WNW (290 degrees) at 8 MPH (7 knots; 3.6 m/s)
Visibility: 10 or more miles (16+ km)
Ceiling: at least 12,000 feet AGL
Clouds: sky clear below 12,000 feet AGL
Weather: automated observation with no human augmentation;
there may or may not be significant weather present at this time

METAR text: KMMH 260216Z AUTO 31004KT 10SM CLR 00/M08 A3023 RMK AO2
Conditions at: KMMH (MAMMOTH/JUNE LAK, CA, US) observed 0216 UTC 26 February 2021
Temperature: 0.0°C (32°F)
Dewpoint: -8.0°C (18°F) [RH = 55%]
Pressure (altimeter): 30.23 inches Hg (1023.8 mb)
Winds: from the NW (310 degrees) at 5 MPH (4 knots; 2.1 m/s)
Visibility: 10 or more miles (16+ km)
Ceiling: at least 12,000 feet AGL
Clouds: sky clear below 12,000 feet AGL
Weather: automated observation with no human augmentation;
there may or may not be significant weather present at this time

Forecast for: KMMH (MAMMOTH/JUNE LAK, CA, US)
Text: KMMH 252320Z 2600/2624 11010KT P6SM SKC
Forecast period: 0000 to 0100 UTC 26 February 2021
Forecast type: FROM: standard forecast or significant change
Winds: from the ESE (110 degrees) at 12 MPH (10 knots; 5.1 m/s)
Visibility: 6 or more miles (10+ km)
Clouds: clear skies
Weather: no significant weather forecast for this period
Text: FM260100 27010KT P6SM FEW180
Forecast period: 0100 to 1800 UTC 26 February 2021
Forecast type: FROM: standard forecast or significant change
Winds: from the W (270 degrees) at 12 MPH (10 knots; 5.1 m/s)
Visibility: 6 or more miles (10+ km)
Ceiling: at least 12,000 feet AGL
Clouds: few clouds at 18000 feet AGL
Weather: no significant weather forecast for this period
Text: FM261800 25011G20KT P6SM SKC
Forecast period: 1800 to 2100 UTC 26 February 2021
Forecast type: FROM: standard forecast or significant change
Winds: from the WSW (250 degrees) at 13 MPH (11 knots; 5.7 m/s)
gusting to 23 MPH (20 knots; 10.3 m/s)
Visibility: 6 or more miles (10+ km)
Clouds: clear skies
Weather: no significant weather forecast for this period
Text: FM262100 25015G29KT P6SM SKC
Forecast period: 2100 UTC 26 February 2021 to 0000 UTC 27 February 2021
Forecast type: FROM: standard forecast or significant change
Winds: from the WSW (250 degrees) at 17 MPH (15 knots; 7.7 m/s)
gusting to 33 MPH (29 knots; 14.9 m/s)
Visibility: 6 or more miles (10+ km)
Clouds: clear skies
Weather: no significant weather forecast for this period

 AIRPORT MAP

 RUNWAY INFORMATION
Runway 09 Runway length 7000 ft Runway width 100 ft
Runway elevation 7128 ft Runway displaced threshold 0 ft Runway heading 109
Runway 27 Runway length 7000 ft Runway width 100 ft
Runway elevation 7056 ft Runway displaced threshold 0 ft Runway heading 289

 AIRPORT FREQUENCIES
Type AWOS Name AWOS 3 Frequency 118.05 MHZ
Type CNTR Name OAKLAND CN Frequency 125.75 MHZ
Type RDO Name RIVERSIDE Frequency 122.15 MHZ
Type UNIC Name CTAF/UNICO Frequency 122.8 MHZ

 AIRPORT NEAR NAVIGATION AIDS

-